sensor_id;sensor_type;location;lat;lon;timestamp;P1;durP1;ratioP1;P2;durP2;ratioP2
58468;SDS011;44257;44.804;10.220;2022-11-22T00:00:14;16.40;;;10.13;;
58468;SDS011;44257;44.804;10.220;2022-11-22T00:02:41;22.60;;;11.60;;
58468;SDS011;44257;44.804;10.220;2022-11-22T00:05:07;21.33;;;9.43;;
58468;SDS011;44257;44.804;10.220;2022-11-22T00:07:33;17.50;;;10.15;;
58468;SDS011;44257;44.804;10.220;2022-11-22T00:09:59;20.00;;;10.77;;
58468;SDS011;44257;44.804;10.220;2022-11-22T00:12:25;19.25;;;7.95;;
58468;SDS011;44257;44.804;10.220;2022-11-22T00:14:51;19.38;;;10.98;;
58468;SDS011;44257;44.804;10.220;2022-11-22T00:17:17;17.95;;;9.13;;
58468;SDS011;44257;44.804;10.220;2022-11-22T00:19:42;16.95;;;9.90;;
58468;SDS011;44257;44.804;10.220;2022-11-22T00:22:08;19.15;;;9.38;;
58468;SDS011;44257;44.804;10.220;2022-11-22T00:24:34;15.52;;;9.60;;
58468;SDS011;44257;44.804;10.220;2022-11-22T00:27:00;15.88;;;7.18;;
58468;SDS011;44257;44.804;10.220;2022-11-22T00:29:26;14.18;;;9.10;;
58468;SDS011;44257;44.804;10.220;2022-11-22T00:31:52;18.10;;;8.73;;
58468;SDS011;44257;44.804;10.220;2022-11-22T00:34:17;19.27;;;8.55;;
58468;SDS011;44257;44.804;10.220;2022-11-22T00:36:43;18.45;;;9.45;;
58468;SDS011;44257;44.804;10.220;2022-11-22T00:39:09;21.50;;;9.32;;
58468;SDS011;44257;44.804;10.220;2022-11-22T00:41:35;16.65;;;8.38;;
58468;SDS011;44257;44.804;10.220;2022-11-22T00:44:01;14.48;;;9.65;;
58468;SDS011;44257;44.804;10.220;2022-11-22T00:46:27;12.77;;;7.40;;
58468;SDS011;44257;44.804;10.220;2022-11-22T00:48:53;16.00;;;8.27;;
58468;SDS011;44257;44.804;10.220;2022-11-22T00:51:18;12.60;;;8.65;;
58468;SDS011;44257;44.804;10.220;2022-11-22T00:53:44;14.57;;;8.23;;
58468;SDS011;44257;44.804;10.220;2022-11-22T00:56:10;13.02;;;7.38;;
58468;SDS011;44257;44.804;10.220;2022-11-22T00:58:36;16.15;;;7.47;;
58468;SDS011;44257;44.804;10.220;2022-11-22T01:01:02;17.90;;;7.43;;
58468;SDS011;44257;44.804;10.220;2022-11-22T01:03:28;17.10;;;7.38;;
58468;SDS011;44257;44.804;10.220;2022-11-22T01:05:54;13.48;;;7.35;;
58468;SDS011;44257;44.804;10.220;2022-11-22T01:08:19;15.63;;;8.00;;
58468;SDS011;44257;44.804;10.220;2022-11-22T01:10:45;15.77;;;7.47;;
58468;SDS011;44257;44.804;10.220;2022-11-22T01:13:11;16.45;;;7.88;;
58468;SDS011;44257;44.804;10.220;2022-11-22T01:15:37;14.63;;;7.35;;
58468;SDS011;44257;44.804;10.220;2022-11-22T01:18:03;12.70;;;6.85;;
58468;SDS011;44257;44.804;10.220;2022-11-22T01:20:29;9.93;;;5.88;;
58468;SDS011;44257;44.804;10.220;2022-11-22T01:22:56;12.60;;;7.28;;
58468;SDS011;44257;44.804;10.220;2022-11-22T01:25:22;13.43;;;6.30;;
58468;SDS011;44257;44.804;10.220;2022-11-22T01:27:48;14.57;;;7.70;;
58468;SDS011;44257;44.804;10.220;2022-11-22T01:30:15;12.25;;;8.10;;
58468;SDS011;44257;44.804;10.220;2022-11-22T01:32:42;12.15;;;6.20;;
58468;SDS011;44257;44.804;10.220;2022-11-22T01:35:09;12.40;;;6.47;;
58468;SDS011;44257;44.804;10.220;2022-11-22T01:37:34;13.98;;;5.55;;
58468;SDS011;44257;44.804;10.220;2022-11-22T01:40:00;13.18;;;6.25;;
58468;SDS011;44257;44.804;10.220;2022-11-22T01:42:44;12.35;;;6.10;;
58468;SDS011;44257;44.804;10.220;2022-11-22T01:50:25;13.48;;;6.45;;
58468;SDS011;44257;44.804;10.220;2022-11-22T01:52:53;10.68;;;7.13;;
58468;SDS011;44257;44.804;10.220;2022-11-22T01:55:20;14.20;;;5.95;;
58468;SDS011;44257;44.804;10.220;2022-11-22T01:57:46;12.27;;;7.07;;
58468;SDS011;44257;44.804;10.220;2022-11-22T02:00:13;11.07;;;6.63;;
58468;SDS011;44257;44.804;10.220;2022-11-22T02:02:50;15.13;;;7.50;;
58468;SDS011;44257;44.804;10.220;2022-11-22T02:05:20;16.20;;;7.30;;
58468;SDS011;44257;44.804;10.220;2022-11-22T02:07:54;10.90;;;5.20;;
58468;SDS011;44257;44.804;10.220;2022-11-22T02:10:27;11.30;;;7.60;;
58468;SDS011;44257;44.804;10.220;2022-11-22T02:12:54;12.98;;;7.22;;
58468;SDS011;44257;44.804;10.220;2022-11-22T02:15:23;12.20;;;6.95;;
58468;SDS011;44257;44.804;10.220;2022-11-22T02:17:49;9.75;;;5.55;;
58468;SDS011;44257;44.804;10.220;2022-11-22T02:20:15;11.75;;;5.75;;
58468;SDS011;44257;44.804;10.220;2022-11-22T02:28:09;12.98;;;6.15;;
58468;SDS011;44257;44.804;10.220;2022-11-22T02:30:38;11.40;;;6.03;;
58468;SDS011;44257;44.804;10.220;2022-11-22T02:33:05;9.68;;;5.43;;
58468;SDS011;44257;44.804;10.220;2022-11-22T02:35:32;8.80;;;5.25;;
58468;SDS011;44257;44.804;10.220;2022-11-22T02:40:28;8.45;;;5.07;;
58468;SDS011;44257;44.804;10.220;2022-11-22T02:43:02;10.07;;;5.30;;
58468;SDS011;44257;44.804;10.220;2022-11-22T02:45:34;8.18;;;4.95;;
58468;SDS011;44257;44.804;10.220;2022-11-22T02:48:09;8.13;;;5.32;;
58468;SDS011;44257;44.804;10.220;2022-11-22T02:50:40;13.45;;;5.63;;
58468;SDS011;44257;44.804;10.220;2022-11-22T02:53:06;9.77;;;6.05;;
58468;SDS011;44257;44.804;10.220;2022-11-22T02:55:33;11.98;;;5.55;;
58468;SDS011;44257;44.804;10.220;2022-11-22T02:58:00;9.20;;;6.38;;
58468;SDS011;44257;44.804;10.220;2022-11-22T03:00:26;13.32;;;6.28;;
58468;SDS011;44257;44.804;10.220;2022-11-22T03:02:52;14.65;;;5.95;;
58468;SDS011;44257;44.804;10.220;2022-11-22T03:05:19;9.35;;;4.57;;
58468;SDS011;44257;44.804;10.220;2022-11-22T03:07:45;10.15;;;6.13;;
58468;SDS011;44257;44.804;10.220;2022-11-22T03:10:11;8.82;;;4.40;;
58468;SDS011;44257;44.804;10.220;2022-11-22T03:12:36;10.10;;;5.35;;
58468;SDS011;44257;44.804;10.220;2022-11-22T03:15:02;11.50;;;5.43;;
58468;SDS011;44257;44.804;10.220;2022-11-22T03:17:28;10.20;;;5.72;;
58468;SDS011;44257;44.804;10.220;2022-11-22T03:19:54;9.77;;;5.80;;
58468;SDS011;44257;44.804;10.220;2022-11-22T03:22:20;14.50;;;5.82;;
58468;SDS011;44257;44.804;10.220;2022-11-22T03:24:46;12.35;;;5.57;;
58468;SDS011;44257;44.804;10.220;2022-11-22T03:27:12;7.53;;;5.80;;
58468;SDS011;44257;44.804;10.220;2022-11-22T03:29:37;9.43;;;4.13;;
58468;SDS011;44257;44.804;10.220;2022-11-22T03:32:04;9.30;;;4.90;;
58468;SDS011;44257;44.804;10.220;2022-11-22T03:34:30;9.88;;;5.35;;
58468;SDS011;44257;44.804;10.220;2022-11-22T03:36:55;10.02;;;4.78;;
58468;SDS011;44257;44.804;10.220;2022-11-22T03:39:21;9.48;;;4.65;;
58468;SDS011;44257;44.804;10.220;2022-11-22T03:41:47;10.55;;;4.75;;
58468;SDS011;44257;44.804;10.220;2022-11-22T03:44:13;13.32;;;5.63;;
58468;SDS011;44257;44.804;10.220;2022-11-22T03:46:39;10.63;;;5.22;;
58468;SDS011;44257;44.804;10.220;2022-11-22T03:49:05;7.22;;;5.07;;
58468;SDS011;44257;44.804;10.220;2022-11-22T03:51:31;15.10;;;6.45;;
58468;SDS011;44257;44.804;10.220;2022-11-22T03:53:57;12.73;;;6.15;;
58468;SDS011;44257;44.804;10.220;2022-11-22T03:56:23;9.68;;;3.72;;
58468;SDS011;44257;44.804;10.220;2022-11-22T03:58:49;12.70;;;5.28;;
58468;SDS011;44257;44.804;10.220;2022-11-22T04:01:15;10.45;;;5.57;;
58468;SDS011;44257;44.804;10.220;2022-11-22T04:03:41;9.00;;;5.18;;
58468;SDS011;44257;44.804;10.220;2022-11-22T04:06:07;9.07;;;5.53;;
58468;SDS011;44257;44.804;10.220;2022-11-22T04:08:33;12.85;;;4.25;;
58468;SDS011;44257;44.804;10.220;2022-11-22T04:10:58;12.13;;;6.18;;
58468;SDS011;44257;44.804;10.220;2022-11-22T04:13:25;13.15;;;7.00;;
58468;SDS011;44257;44.804;10.220;2022-11-22T04:16:11;11.80;;;6.28;;
58468;SDS011;44257;44.804;10.220;2022-11-22T04:18:37;11.05;;;5.10;;
58468;SDS011;44257;44.804;10.220;2022-11-22T04:21:03;13.50;;;5.90;;
58468;SDS011;44257;44.804;10.220;2022-11-22T04:23:47;11.98;;;5.90;;
58468;SDS011;44257;44.804;10.220;2022-11-22T04:26:32;11.80;;;5.47;;
58468;SDS011;44257;44.804;10.220;2022-11-22T04:28:58;10.73;;;5.35;;
58468;SDS011;44257;44.804;10.220;2022-11-22T04:31:24;12.00;;;6.50;;
58468;SDS011;44257;44.804;10.220;2022-11-22T04:34:08;11.85;;;5.30;;
58468;SDS011;44257;44.804;10.220;2022-11-22T04:36:34;9.18;;;5.13;;
58468;SDS011;44257;44.804;10.220;2022-11-22T04:39:00;11.50;;;6.90;;
58468;SDS011;44257;44.804;10.220;2022-11-22T04:41:26;12.85;;;5.25;;
58468;SDS011;44257;44.804;10.220;2022-11-22T04:43:52;9.90;;;4.97;;
58468;SDS011;44257;44.804;10.220;2022-11-22T04:46:36;10.82;;;5.55;;
58468;SDS011;44257;44.804;10.220;2022-11-22T04:49:02;9.07;;;4.35;;
58468;SDS011;44257;44.804;10.220;2022-11-22T04:51:28;7.70;;;4.82;;
58468;SDS011;44257;44.804;10.220;2022-11-22T04:54:12;9.35;;;5.57;;
58468;SDS011;44257;44.804;10.220;2022-11-22T04:56:38;6.43;;;3.03;;
58468;SDS011;44257;44.804;10.220;2022-11-22T04:59:04;7.38;;;3.78;;
58468;SDS011;44257;44.804;10.220;2022-11-22T05:01:30;9.80;;;5.13;;
58468;SDS011;44257;44.804;10.220;2022-11-22T05:03:56;8.10;;;5.75;;
58468;SDS011;44257;44.804;10.220;2022-11-22T05:06:21;5.30;;;4.00;;
58468;SDS011;44257;44.804;10.220;2022-11-22T05:08:47;7.95;;;3.40;;
58468;SDS011;44257;44.804;10.220;2022-11-22T05:11:13;9.98;;;4.85;;
58468;SDS011;44257;44.804;10.220;2022-11-22T05:13:39;11.73;;;3.65;;
58468;SDS011;44257;44.804;10.220;2022-11-22T05:16:07;10.35;;;4.50;;
58468;SDS011;44257;44.804;10.220;2022-11-22T05:18:35;9.25;;;4.65;;
58468;SDS011;44257;44.804;10.220;2022-11-22T05:21:08;9.63;;;4.82;;
58468;SDS011;44257;44.804;10.220;2022-11-22T05:23:36;6.38;;;4.18;;
58468;SDS011;44257;44.804;10.220;2022-11-22T05:26:21;4.50;;;3.35;;
58468;SDS011;44257;44.804;10.220;2022-11-22T05:28:52;8.13;;;3.55;;
58468;SDS011;44257;44.804;10.220;2022-11-22T05:31:19;8.60;;;5.10;;
58468;SDS011;44257;44.804;10.220;2022-11-22T05:33:47;11.43;;;5.07;;
58468;SDS011;44257;44.804;10.220;2022-11-22T05:36:18;6.80;;;4.72;;
58468;SDS011;44257;44.804;10.220;2022-11-22T05:38:44;8.63;;;5.07;;
58468;SDS011;44257;44.804;10.220;2022-11-22T05:41:10;9.25;;;5.72;;
58468;SDS011;44257;44.804;10.220;2022-11-22T05:43:37;8.18;;;4.85;;
58468;SDS011;44257;44.804;10.220;2022-11-22T05:46:11;8.50;;;5.43;;
58468;SDS011;44257;44.804;10.220;2022-11-22T05:48:39;8.30;;;4.93;;
58468;SDS011;44257;44.804;10.220;2022-11-22T05:51:08;6.03;;;3.78;;
58468;SDS011;44257;44.804;10.220;2022-11-22T05:53:35;8.05;;;5.28;;
58468;SDS011;44257;44.804;10.220;2022-11-22T05:56:06;7.25;;;4.80;;
58468;SDS011;44257;44.804;10.220;2022-11-22T05:58:36;7.75;;;5.28;;
58468;SDS011;44257;44.804;10.220;2022-11-22T06:01:02;9.90;;;5.10;;
58468;SDS011;44257;44.804;10.220;2022-11-22T06:03:29;5.22;;;3.35;;
58468;SDS011;44257;44.804;10.220;2022-11-22T06:05:55;10.30;;;4.97;;
58468;SDS011;44257;44.804;10.220;2022-11-22T06:08:21;8.07;;;4.28;;
58468;SDS011;44257;44.804;10.220;2022-11-22T06:10:47;7.07;;;3.67;;
58468;SDS011;44257;44.804;10.220;2022-11-22T06:13:13;7.82;;;3.72;;
58468;SDS011;44257;44.804;10.220;2022-11-22T06:15:39;9.63;;;3.78;;
58468;SDS011;44257;44.804;10.220;2022-11-22T06:18:05;8.10;;;4.60;;
58468;SDS011;44257;44.804;10.220;2022-11-22T06:20:31;7.05;;;3.75;;
58468;SDS011;44257;44.804;10.220;2022-11-22T06:22:57;6.63;;;4.22;;
58468;SDS011;44257;44.804;10.220;2022-11-22T06:25:23;21.50;;;3.60;;
58468;SDS011;44257;44.804;10.220;2022-11-22T06:27:49;7.68;;;4.53;;
58468;SDS011;44257;44.804;10.220;2022-11-22T06:30:15;6.45;;;3.50;;
58468;SDS011;44257;44.804;10.220;2022-11-22T06:32:41;7.55;;;5.22;;
58468;SDS011;44257;44.804;10.220;2022-11-22T06:35:07;5.13;;;3.13;;
58468;SDS011;44257;44.804;10.220;2022-11-22T06:37:33;5.35;;;3.33;;
58468;SDS011;44257;44.804;10.220;2022-11-22T06:39:59;6.43;;;3.55;;
58468;SDS011;44257;44.804;10.220;2022-11-22T06:42:25;7.40;;;4.50;;
58468;SDS011;44257;44.804;10.220;2022-11-22T06:44:51;9.27;;;4.40;;
58468;SDS011;44257;44.804;10.220;2022-11-22T06:47:17;5.82;;;3.17;;
58468;SDS011;44257;44.804;10.220;2022-11-22T06:49:43;5.93;;;3.67;;
58468;SDS011;44257;44.804;10.220;2022-11-22T06:52:10;6.72;;;2.63;;
58468;SDS011;44257;44.804;10.220;2022-11-22T06:54:36;6.35;;;2.83;;
58468;SDS011;44257;44.804;10.220;2022-11-22T06:57:02;4.05;;;2.90;;
58468;SDS011;44257;44.804;10.220;2022-11-22T06:59:27;3.78;;;2.13;;
58468;SDS011;44257;44.804;10.220;2022-11-22T07:01:54;6.18;;;3.33;;
58468;SDS011;44257;44.804;10.220;2022-11-22T07:04:20;5.00;;;3.50;;
58468;SDS011;44257;44.804;10.220;2022-11-22T07:06:46;5.50;;;3.65;;
58468;SDS011;44257;44.804;10.220;2022-11-22T07:09:12;2.63;;;1.80;;
58468;SDS011;44257;44.804;10.220;2022-11-22T07:11:38;7.07;;;3.67;;
58468;SDS011;44257;44.804;10.220;2022-11-22T07:14:05;6.25;;;2.38;;
58468;SDS011;44257;44.804;10.220;2022-11-22T07:16:31;6.18;;;3.22;;
58468;SDS011;44257;44.804;10.220;2022-11-22T07:19:00;7.30;;;4.38;;
58468;SDS011;44257;44.804;10.220;2022-11-22T07:21:26;5.40;;;3.00;;
58468;SDS011;44257;44.804;10.220;2022-11-22T07:23:52;3.92;;;3.53;;
58468;SDS011;44257;44.804;10.220;2022-11-22T07:26:20;3.30;;;2.25;;
58468;SDS011;44257;44.804;10.220;2022-11-22T07:28:47;4.47;;;2.72;;
58468;SDS011;44257;44.804;10.220;2022-11-22T07:31:14;7.13;;;2.92;;
58468;SDS011;44257;44.804;10.220;2022-11-22T07:33:41;8.90;;;3.55;;
58468;SDS011;44257;44.804;10.220;2022-11-22T07:36:09;4.40;;;2.45;;
58468;SDS011;44257;44.804;10.220;2022-11-22T07:38:37;2.67;;;2.13;;
58468;SDS011;44257;44.804;10.220;2022-11-22T07:41:03;3.45;;;2.20;;
58468;SDS011;44257;44.804;10.220;2022-11-22T07:43:30;3.28;;;1.63;;
58468;SDS011;44257;44.804;10.220;2022-11-22T07:45:59;3.10;;;1.90;;
58468;SDS011;44257;44.804;10.220;2022-11-22T07:48:26;4.03;;;2.53;;
58468;SDS011;44257;44.804;10.220;2022-11-22T07:50:52;3.80;;;2.85;;
58468;SDS011;44257;44.804;10.220;2022-11-22T07:53:18;4.00;;;2.60;;
58468;SDS011;44257;44.804;10.220;2022-11-22T07:55:43;4.80;;;2.35;;
58468;SDS011;44257;44.804;10.220;2022-11-22T07:58:10;5.32;;;2.33;;
58468;SDS011;44257;44.804;10.220;2022-11-22T08:00:35;4.13;;;2.08;;
58468;SDS011;44257;44.804;10.220;2022-11-22T08:03:01;4.07;;;1.98;;
58468;SDS011;44257;44.804;10.220;2022-11-22T08:05:27;4.03;;;2.05;;
58468;SDS011;44257;44.804;10.220;2022-11-22T08:07:53;4.05;;;2.58;;
58468;SDS011;44257;44.804;10.220;2022-11-22T08:10:19;3.63;;;1.63;;
58468;SDS011;44257;44.804;10.220;2022-11-22T08:12:45;3.70;;;1.63;;
58468;SDS011;44257;44.804;10.220;2022-11-22T08:15:12;2.90;;;1.45;;
58468;SDS011;44257;44.804;10.220;2022-11-22T08:17:39;2.47;;;1.77;;
58468;SDS011;44257;44.804;10.220;2022-11-22T08:20:05;6.32;;;1.85;;
58468;SDS011;44257;44.804;10.220;2022-11-22T08:22:33;2.03;;;1.15;;
58468;SDS011;44257;44.804;10.220;2022-11-22T08:25:03;2.00;;;1.35;;
58468;SDS011;44257;44.804;10.220;2022-11-22T08:27:29;2.05;;;1.00;;
58468;SDS011;44257;44.804;10.220;2022-11-22T08:29:55;2.92;;;1.30;;
58468;SDS011;44257;44.804;10.220;2022-11-22T08:32:21;1.52;;;1.02;;
58468;SDS011;44257;44.804;10.220;2022-11-22T08:34:47;1.33;;;1.20;;
58468;SDS011;44257;44.804;10.220;2022-11-22T08:37:13;1.85;;;0.95;;
58468;SDS011;44257;44.804;10.220;2022-11-22T08:39:39;1.23;;;0.60;;
58468;SDS011;44257;44.804;10.220;2022-11-22T08:42:04;0.55;;;0.47;;
58468;SDS011;44257;44.804;10.220;2022-11-22T08:44:31;1.23;;;1.05;;
58468;SDS011;44257;44.804;10.220;2022-11-22T08:46:57;1.15;;;0.47;;
58468;SDS011;44257;44.804;10.220;2022-11-22T08:49:23;0.70;;;0.43;;
58468;SDS011;44257;44.804;10.220;2022-11-22T08:51:49;4.68;;;1.70;;
58468;SDS011;44257;44.804;10.220;2022-11-22T08:54:15;0.93;;;0.88;;
58468;SDS011;44257;44.804;10.220;2022-11-22T08:56:41;2.88;;;1.67;;
58468;SDS011;44257;44.804;10.220;2022-11-22T08:59:06;1.23;;;0.75;;
58468;SDS011;44257;44.804;10.220;2022-11-22T09:01:32;1.92;;;0.88;;
58468;SDS011;44257;44.804;10.220;2022-11-22T09:03:58;1.45;;;0.75;;
58468;SDS011;44257;44.804;10.220;2022-11-22T09:06:24;1.92;;;0.77;;
58468;SDS011;44257;44.804;10.220;2022-11-22T09:08:50;1.00;;;0.60;;
58468;SDS011;44257;44.804;10.220;2022-11-22T09:11:17;1.23;;;0.90;;
58468;SDS011;44257;44.804;10.220;2022-11-22T09:13:44;1.30;;;0.82;;
58468;SDS011;44257;44.804;10.220;2022-11-22T09:16:12;2.83;;;1.20;;
58468;SDS011;44257;44.804;10.220;2022-11-22T09:18:40;0.90;;;0.60;;
58468;SDS011;44257;44.804;10.220;2022-11-22T09:21:07;1.10;;;0.73;;
58468;SDS011;44257;44.804;10.220;2022-11-22T09:23:40;2.47;;;1.15;;
58468;SDS011;44257;44.804;10.220;2022-11-22T09:26:08;1.42;;;0.70;;
58468;SDS011;44257;44.804;10.220;2022-11-22T09:28:36;2.78;;;1.10;;
58468;SDS011;44257;44.804;10.220;2022-11-22T09:31:09;3.55;;;1.95;;
58468;SDS011;44257;44.804;10.220;2022-11-22T09:33:40;2.42;;;1.45;;
58468;SDS011;44257;44.804;10.220;2022-11-22T09:36:10;2.78;;;1.48;;
58468;SDS011;44257;44.804;10.220;2022-11-22T09:38:36;2.92;;;1.52;;
58468;SDS011;44257;44.804;10.220;2022-11-22T09:46:42;1.95;;;0.95;;
58468;SDS011;44257;44.804;10.220;2022-11-22T09:51:57;1.95;;;1.55;;
58468;SDS011;44257;44.804;10.220;2022-11-22T09:57:22;2.05;;;1.00;;
58468;SDS011;44257;44.804;10.220;2022-11-22T10:05:26;0.75;;;0.47;;
58468;SDS011;44257;44.804;10.220;2022-11-22T10:11:11;1.10;;;0.77;;
58468;SDS011;44257;44.804;10.220;2022-11-22T10:14:04;1.02;;;0.45;;
58468;SDS011;44257;44.804;10.220;2022-11-22T10:16:46;1.02;;;0.70;;
58468;SDS011;44257;44.804;10.220;2022-11-22T10:19:21;1.10;;;0.47;;
58468;SDS011;44257;44.804;10.220;2022-11-22T10:21:53;0.98;;;0.60;;
58468;SDS011;44257;44.804;10.220;2022-11-22T10:24:19;1.02;;;0.57;;
58468;SDS011;44257;44.804;10.220;2022-11-22T10:26:45;1.10;;;0.70;;
58468;SDS011;44257;44.804;10.220;2022-11-22T10:35:10;0.88;;;0.47;;
58468;SDS011;44257;44.804;10.220;2022-11-22T10:40:25;0.55;;;0.47;;
58468;SDS011;44257;44.804;10.220;2022-11-22T10:45:49;0.57;;;0.50;;
58468;SDS011;44257;44.804;10.220;2022-11-22T10:59:08;0.57;;;0.30;;
58468;SDS011;44257;44.804;10.220;2022-11-22T11:01:46;0.35;;;0.28;;
58468;SDS011;44257;44.804;10.220;2022-11-22T11:04:36;0.20;;;0.17;;
58468;SDS011;44257;44.804;10.220;2022-11-22T11:07:07;1.30;;;0.40;;
58468;SDS011;44257;44.804;10.220;2022-11-22T11:09:44;0.68;;;0.43;;
58468;SDS011;44257;44.804;10.220;2022-11-22T11:14:53;1.30;;;0.55;;
58468;SDS011;44257;44.804;10.220;2022-11-22T11:17:30;0.38;;;0.20;;
58468;SDS011;44257;44.804;10.220;2022-11-22T11:20:02;0.75;;;0.52;;
58468;SDS011;44257;44.804;10.220;2022-11-22T11:22:35;0.65;;;0.30;;
58468;SDS011;44257;44.804;10.220;2022-11-22T11:33:38;0.40;;;0.30;;
58468;SDS011;44257;44.804;10.220;2022-11-22T11:36:38;0.28;;;0.20;;
58468;SDS011;44257;44.804;10.220;2022-11-22T11:38:57;0.60;;;0.20;;
58468;SDS011;44257;44.804;10.220;2022-11-22T11:41:32;0.50;;;0.40;;
58468;SDS011;44257;44.804;10.220;2022-11-22T11:43:59;0.25;;;0.22;;
58468;SDS011;44257;44.804;10.220;2022-11-22T11:46:27;0.10;;;0.10;;
58468;SDS011;44257;44.804;10.220;2022-11-22T11:49:20;0.75;;;0.30;;
58468;SDS011;44257;44.804;10.220;2022-11-22T11:51:59;0.20;;;0.13;;
58468;SDS011;44257;44.804;10.220;2022-11-22T11:57:03;1.95;;;0.30;;
58468;SDS011;44257;44.804;10.220;2022-11-22T12:02:12;0.10;;;0.10;;
58468;SDS011;44257;44.804;10.220;2022-11-22T12:09:59;0.70;;;0.30;;
58468;SDS011;44257;44.804;10.220;2022-11-22T12:15:21;0.10;;;0.10;;
58468;SDS011;44257;44.804;10.220;2022-11-22T12:21:17;0.10;;;0.10;;
58468;SDS011;44257;44.804;10.220;2022-11-22T12:23:56;0.20;;;0.20;;
58468;SDS011;44257;44.804;10.220;2022-11-22T12:26:30;0.22;;;0.20;;
58468;SDS011;44257;44.804;10.220;2022-11-22T12:28:56;0.90;;;0.55;;
58468;SDS011;44257;44.804;10.220;2022-11-22T12:31:28;1.33;;;0.35;;
58468;SDS011;44257;44.804;10.220;2022-11-22T12:34:09;1.00;;;0.30;;
58468;SDS011;44257;44.804;10.220;2022-11-22T12:39:30;1.33;;;0.90;;
58468;SDS011;44257;44.804;10.220;2022-11-22T12:42:05;0.50;;;0.50;;
58468;SDS011;44257;44.804;10.220;2022-11-22T12:44:36;0.95;;;0.57;;
58468;SDS011;44257;44.804;10.220;2022-11-22T12:47:08;1.02;;;0.40;;
58468;SDS011;44257;44.804;10.220;2022-11-22T12:54:59;1.05;;;0.63;;
58468;SDS011;44257;44.804;10.220;2022-11-22T13:00:34;0.50;;;0.43;;
58468;SDS011;44257;44.804;10.220;2022-11-22T13:03:09;0.47;;;0.40;;
58468;SDS011;44257;44.804;10.220;2022-11-22T13:05:50;0.57;;;0.50;;
58468;SDS011;44257;44.804;10.220;2022-11-22T13:08:35;1.13;;;0.55;;
58468;SDS011;44257;44.804;10.220;2022-11-22T13:11:15;0.98;;;0.80;;
58468;SDS011;44257;44.804;10.220;2022-11-22T13:13:49;2.42;;;0.77;;
58468;SDS011;44257;44.804;10.220;2022-11-22T13:16:18;1.55;;;1.02;;
58468;SDS011;44257;44.804;10.220;2022-11-22T13:18:45;1.65;;;0.98;;
58468;SDS011;44257;44.804;10.220;2022-11-22T13:26:59;0.90;;;0.63;;
58468;SDS011;44257;44.804;10.220;2022-11-22T13:29:27;0.82;;;0.50;;
58468;SDS011;44257;44.804;10.220;2022-11-22T13:34:30;1.67;;;0.90;;
58468;SDS011;44257;44.804;10.220;2022-11-22T13:40:07;1.55;;;0.80;;
58468;SDS011;44257;44.804;10.220;2022-11-22T13:42:36;1.85;;;0.77;;
58468;SDS011;44257;44.804;10.220;2022-11-22T13:47:34;1.33;;;0.68;;
58468;SDS011;44257;44.804;10.220;2022-11-22T13:53:24;0.47;;;0.43;;
58468;SDS011;44257;44.804;10.220;2022-11-22T13:55:54;0.77;;;0.55;;
58468;SDS011;44257;44.804;10.220;2022-11-22T14:00:47;0.90;;;0.55;;
58468;SDS011;44257;44.804;10.220;2022-11-22T14:05:51;2.50;;;0.85;;
58468;SDS011;44257;44.804;10.220;2022-11-22T14:08:28;1.80;;;0.88;;
58468;SDS011;44257;44.804;10.220;2022-11-22T14:13:55;0.85;;;0.52;;
58468;SDS011;44257;44.804;10.220;2022-11-22T14:16:33;1.33;;;0.80;;
58468;SDS011;44257;44.804;10.220;2022-11-22T14:24:24;1.38;;;0.40;;
58468;SDS011;44257;44.804;10.220;2022-11-22T14:32:27;0.90;;;0.57;;
58468;SDS011;44257;44.804;10.220;2022-11-22T14:35:07;1.85;;;0.40;;
58468;SDS011;44257;44.804;10.220;2022-11-22T14:40:34;0.95;;;0.60;;
58468;SDS011;44257;44.804;10.220;2022-11-22T14:45:41;0.77;;;0.45;;
58468;SDS011;44257;44.804;10.220;2022-11-22T14:48:20;0.88;;;0.55;;
58468;SDS011;44257;44.804;10.220;2022-11-22T14:56:13;1.35;;;0.73;;
58468;SDS011;44257;44.804;10.220;2022-11-22T15:02:06;1.67;;;0.68;;
58468;SDS011;44257;44.804;10.220;2022-11-22T15:05:25;1.25;;;0.80;;
58468;SDS011;44257;44.804;10.220;2022-11-22T15:16:44;0.90;;;0.60;;
58468;SDS011;44257;44.804;10.220;2022-11-22T15:22:06;1.30;;;0.85;;
58468;SDS011;44257;44.804;10.220;2022-11-22T15:24:40;1.05;;;0.77;;
58468;SDS011;44257;44.804;10.220;2022-11-22T15:27:19;1.80;;;1.02;;
58468;SDS011;44257;44.804;10.220;2022-11-22T15:32:39;0.88;;;0.52;;
58468;SDS011;44257;44.804;10.220;2022-11-22T15:35:13;1.00;;;0.60;;
58468;SDS011;44257;44.804;10.220;2022-11-22T15:37:52;1.15;;;0.63;;
58468;SDS011;44257;44.804;10.220;2022-11-22T15:40:21;2.25;;;0.80;;
58468;SDS011;44257;44.804;10.220;2022-11-22T15:42:49;0.70;;;0.38;;
58468;SDS011;44257;44.804;10.220;2022-11-22T15:45:20;0.60;;;0.50;;
58468;SDS011;44257;44.804;10.220;2022-11-22T15:48:05;1.77;;;0.60;;
58468;SDS011;44257;44.804;10.220;2022-11-22T15:50:36;1.63;;;0.85;;
58468;SDS011;44257;44.804;10.220;2022-11-22T15:56:16;0.32;;;0.28;;
58468;SDS011;44257;44.804;10.220;2022-11-22T15:58:51;1.65;;;0.50;;
58468;SDS011;44257;44.804;10.220;2022-11-22T16:01:19;0.68;;;0.55;;
58468;SDS011;44257;44.804;10.220;2022-11-22T16:03:52;1.08;;;0.40;;
58468;SDS011;44257;44.804;10.220;2022-11-22T16:06:22;1.08;;;0.60;;
58468;SDS011;44257;44.804;10.220;2022-11-22T16:09:01;1.80;;;0.80;;
58468;SDS011;44257;44.804;10.220;2022-11-22T16:11:29;0.75;;;0.47;;
58468;SDS011;44257;44.804;10.220;2022-11-22T16:13:57;0.73;;;0.50;;
58468;SDS011;44257;44.804;10.220;2022-11-22T16:16:27;0.70;;;0.47;;
58468;SDS011;44257;44.804;10.220;2022-11-22T16:21:57;1.27;;;0.73;;
58468;SDS011;44257;44.804;10.220;2022-11-22T16:24:26;3.38;;;0.70;;
58468;SDS011;44257;44.804;10.220;2022-11-22T16:26:56;0.80;;;0.50;;
58468;SDS011;44257;44.804;10.220;2022-11-22T16:29:26;2.00;;;0.75;;
58468;SDS011;44257;44.804;10.220;2022-11-22T16:31:59;3.63;;;0.97;;
58468;SDS011;44257;44.804;10.220;2022-11-22T16:34:27;1.23;;;0.50;;
58468;SDS011;44257;44.804;10.220;2022-11-22T16:36:53;0.80;;;0.50;;
58468;SDS011;44257;44.804;10.220;2022-11-22T16:39:19;0.80;;;0.57;;
58468;SDS011;44257;44.804;10.220;2022-11-22T16:41:45;1.33;;;1.20;;
58468;SDS011;44257;44.804;10.220;2022-11-22T16:44:12;2.22;;;1.10;;
58468;SDS011;44257;44.804;10.220;2022-11-22T16:46:41;3.58;;;1.13;;
58468;SDS011;44257;44.804;10.220;2022-11-22T16:49:13;1.17;;;0.77;;
58468;SDS011;44257;44.804;10.220;2022-11-22T16:51:47;1.33;;;0.70;;
58468;SDS011;44257;44.804;10.220;2022-11-22T16:54:18;1.65;;;0.50;;
58468;SDS011;44257;44.804;10.220;2022-11-22T16:56:45;1.15;;;0.60;;
58468;SDS011;44257;44.804;10.220;2022-11-22T16:59:11;1.08;;;0.55;;
58468;SDS011;44257;44.804;10.220;2022-11-22T17:01:38;1.35;;;0.90;;
58468;SDS011;44257;44.804;10.220;2022-11-22T17:04:06;0.88;;;0.55;;
58468;SDS011;44257;44.804;10.220;2022-11-22T17:06:39;1.90;;;0.50;;
58468;SDS011;44257;44.804;10.220;2022-11-22T17:09:07;0.90;;;0.60;;
58468;SDS011;44257;44.804;10.220;2022-11-22T17:11:33;0.85;;;0.60;;
58468;SDS011;44257;44.804;10.220;2022-11-22T17:13:59;1.20;;;0.40;;
58468;SDS011;44257;44.804;10.220;2022-11-22T17:16:25;1.15;;;0.63;;
58468;SDS011;44257;44.804;10.220;2022-11-22T17:18:51;0.88;;;0.70;;
58468;SDS011;44257;44.804;10.220;2022-11-22T17:21:30;0.88;;;0.50;;
58468;SDS011;44257;44.804;10.220;2022-11-22T17:23:57;1.10;;;0.57;;
58468;SDS011;44257;44.804;10.220;2022-11-22T17:26:25;1.05;;;0.43;;